Time;durP1;ratioP1;P1;durP2;ratioP2;P2;SDS_P1;SDS_P2;PMS_P1;PMS_P2;Temp;Humidity;BMP_temperature;BMP_pressure;BME280_temperature;BME280_humidity;BME280_pressure;Samples;Min_cycle;Max_cycle;Signal;HPM_P1;HPM_P2
2022/08/04 00:01:32;;;;;;;8.40;7.70;;;;;;;;;;105571;1303;25226;-29
2022/08/04 00:04:02;;;;;;;8.90;7.30;;;;;;;;;;105649;1303;25277;-25
2022/08/04 00:06:31;;;;;;;9.00;8.30;;;;;;;;;;105497;1303;22808;-28
2022/08/04 00:08:57;;;;;;;7.10;6.50;;;;;;;;;;105566;1303;25226;-28
2022/08/04 00:11:23;;;;;;;10.00;9.10;;;;;;;;;;105485;1303;25260;-25
2022/08/04 00:13:53;;;;;;;9.90;8.30;;;;;;;;;;105613;1303;24752;-25
2022/08/04 00:16:19;;;;;;;8.50;7.70;;;;;;;;;;105611;1303;25235;-29
2022/08/04 00:18:49;;;;;;;11.10;8.70;;;;;;;;;;105592;1303;25234;-29
2022/08/04 00:21:15;;;;;;;15.50;10.50;;;;;;;;;;105495;1304;22517;-24
2022/08/04 00:23:42;;;;;;;14.50;9.60;;;;;;;;;;105573;1303;24376;-28
2022/08/04 00:26:08;;;;;;;12.30;9.60;;;;;;;;;;105573;1303;24431;-26
2022/08/04 00:28:35;;;;;;;9.70;8.70;;;;;;;;;;105538;1303;25287;-29
2022/08/04 00:31:01;;;;;;;12.90;10.10;;;;;;;;;;105526;1303;24961;-24
2022/08/04 00:33:26;;;;;;;9.50;8.00;;;;;;;;;;105563;1303;24268;-23
2022/08/04 00:35:51;;;;;;;18.50;16.40;;;;;;;;;;105610;1303;25412;-24
2022/08/04 00:38:17;;;;;;;23.20;16.80;;;;;;;;;;105534;1303;24399;-30
2022/08/04 00:40:46;;;;;;;19.40;14.60;;;;;;;;;;105609;1303;22455;-26
2022/08/04 00:43:15;;;;;;;61.20;39.30;;;;;;;;;;105621;1303;26449;-28
2022/08/04 00:45:44;;;;;;;12.50;11.30;;;;;;;;;;105623;1303;25247;-28
2022/08/04 00:48:13;;;;;;;56.60;46.50;;;;;;;;;;105582;1303;24242;-28
2022/08/04 00:50:43;;;;;;;62.60;55.00;;;;;;;;;;105606;1296;22543;-28
2022/08/04 00:53:12;;;;;;;14.90;12.70;;;;;;;;;;105568;1303;24388;-24
2022/08/04 00:55:41;;;;;;;16.70;9.40;;;;;;;;;;105524;1303;22706;-28
2022/08/04 00:58:17;;;;;;;11.50;9.80;;;;;;;;;;104781;1303;1003323;-28
2022/08/04 01:00:46;;;;;;;11.60;9.60;;;;;;;;;;105531;1303;25194;-28
2022/08/04 01:03:13;;;;;;;10.10;8.30;;;;;;;;;;105583;1303;24289;-29
2022/08/04 01:05:45;;;;;;;22.80;20.00;;;;;;;;;;105451;1303;25341;-24
2022/08/04 01:08:16;;;;;;;18.00;14.00;;;;;;;;;;105629;1304;25189;-25
2022/08/04 01:10:47;;;;;;;15.20;13.50;;;;;;;;;;105613;1304;22980;-31
2022/08/04 01:13:18;;;;;;;13.50;12.20;;;;;;;;;;105539;1303;25203;-24
2022/08/04 01:15:45;;;;;;;14.10;12.80;;;;;;;;;;105532;1282;22533;-30
2022/08/04 01:18:13;;;;;;;10.90;9.90;;;;;;;;;;105593;1303;25191;-28
2022/08/04 01:20:41;;;;;;;12.90;11.60;;;;;;;;;;105556;1303;22500;-24
2022/08/04 01:23:13;;;;;;;12.50;10.30;;;;;;;;;;105667;1303;25277;-30
2022/08/04 01:25:40;;;;;;;16.90;14.40;;;;;;;;;;105641;1303;24257;-27
2022/08/04 01:28:13;;;;;;;20.50;17.30;;;;;;;;;;105613;1296;22954;-26
2022/08/04 01:30:38;;;;;;;17.30;15.20;;;;;;;;;;105528;1303;24376;-25
2022/08/04 01:33:07;;;;;;;16.50;14.60;;;;;;;;;;105596;1303;24231;-28
2022/08/04 01:35:35;;;;;;;13.30;11.70;;;;;;;;;;105483;1301;22506;-29
2022/08/04 01:38:03;;;;;;;13.30;10.90;;;;;;;;;;105500;1298;22560;-24
2022/08/04 01:40:28;;;;;;;11.90;10.80;;;;;;;;;;105419;1304;22534;-26
2022/08/04 01:42:53;;;;;;;13.40;9.80;;;;;;;;;;105615;1303;25229;-24
2022/08/04 01:45:19;;;;;;;13.40;10.20;;;;;;;;;;105413;1304;24399;-25
2022/08/04 01:47:48;;;;;;;11.20;10.10;;;;;;;;;;105517;1303;24372;-24
2022/08/04 01:50:13;;;;;;;13.00;11.70;;;;;;;;;;105590;1303;24395;-25
2022/08/04 01:52:39;;;;;;;12.70;11.40;;;;;;;;;;105506;1303;26471;-28
2022/08/04 01:55:06;;;;;;;9.80;8.50;;;;;;;;;;105580;1303;22516;-24
2022/08/04 01:57:32;;;;;;;15.10;13.20;;;;;;;;;;105543;1303;25246;-28
2022/08/04 01:59:57;;;;;;;25.20;22.70;;;;;;;;;;105391;1304;22526;-28
2022/08/04 02:02:23;;;;;;;19.80;15.10;;;;;;;;;;105553;1296;22504;-25
2022/08/04 02:04:48;;;;;;;15.00;13.60;;;;;;;;;;105630;1298;22537;-28
2022/08/04 02:07:16;;;;;;;20.70;17.80;;;;;;;;;;105521;1303;22551;-28
2022/08/04 02:09:42;;;;;;;20.60;17.70;;;;;;;;;;105568;1303;24347;-28
2022/08/04 02:12:11;;;;;;;14.20;12.00;;;;;;;;;;105535;1303;25236;-24
2022/08/04 02:17:09;;;;;;;14.60;13.20;;;;;;;;;;105578;1303;25273;-24
2022/08/04 02:19:35;;;;;;;16.80;12.70;;;;;;;;;;105547;1303;25639;-25
2022/08/04 02:22:05;;;;;;;11.70;10.50;;;;;;;;;;105647;1303;22523;-24
2022/08/04 02:24:30;;;;;;;15.70;14.20;;;;;;;;;;105502;1299;22710;-24
2022/08/04 02:26:56;;;;;;;13.10;11.90;;;;;;;;;;105498;1303;24197;-27
2022/08/04 02:29:41;;;;;;;13.70;12.50;;;;;;;;;;105578;1303;25197;-24
2022/08/04 02:32:10;;;;;;;14.10;12.80;;;;;;;;;;105488;1298;22497;-29
2022/08/04 02:34:37;;;;;;;18.30;14.10;;;;;;;;;;105479;1303;24276;-29
2022/08/04 02:37:03;;;;;;;37.40;24.00;;;;;;;;;;105575;1300;22520;-25
2022/08/04 02:39:30;;;;;;;40.40;36.30;;;;;;;;;;105521;1299;22503;-29
2022/08/04 02:41:55;;;;;;;26.90;24.10;;;;;;;;;;105572;1303;24268;-28
2022/08/04 02:44:21;;;;;;;34.40;31.10;;;;;;;;;;105566;1303;23676;-24
2022/08/04 02:46:47;;;;;;;29.00;26.40;;;;;;;;;;105593;1303;22495;-28
2022/08/04 02:49:12;;;;;;;20.10;15.60;;;;;;;;;;105607;1303;24170;-25
2022/08/04 02:51:40;;;;;;;18.80;12.90;;;;;;;;;;105554;1303;24330;-28
2022/08/04 02:54:05;;;;;;;19.40;17.10;;;;;;;;;;105499;1303;22503;-28
2022/08/04 02:56:31;;;;;;;24.30;19.90;;;;;;;;;;105548;1303;25248;-24
2022/08/04 02:58:57;;;;;;;23.00;20.60;;;;;;;;;;105594;1303;25295;-28
2022/08/04 03:01:23;;;;;;;19.10;16.00;;;;;;;;;;105587;1303;24283;-25
2022/08/04 03:03:49;;;;;;;16.60;13.40;;;;;;;;;;105560;1303;25390;-24
2022/08/04 03:06:15;;;;;;;17.00;14.20;;;;;;;;;;105571;1303;25225;-31
2022/08/04 03:08:43;;;;;;;14.70;13.10;;;;;;;;;;105585;1303;25203;-30
2022/08/04 03:11:15;;;;;;;12.80;11.40;;;;;;;;;;105517;1303;25203;-29
2022/08/04 03:13:44;;;;;;;16.40;14.30;;;;;;;;;;105593;1303;25409;-24
2022/08/04 03:16:18;;;;;;;15.10;13.60;;;;;;;;;;105571;1303;23008;-24
2022/08/04 03:18:55;;;;;;;23.50;18.00;;;;;;;;;;105540;1297;22873;-24
2022/08/04 03:21:26;;;;;;;56.00;49.90;;;;;;;;;;105616;1303;24333;-24
2022/08/04 03:24:04;;;;;;;70.80;62.90;;;;;;;;;;105541;1303;25520;-28
2022/08/04 03:26:41;;;;;;;111.70;80.10;;;;;;;;;;105584;1296;22986;-28
2022/08/04 03:29:18;;;;;;;120.30;91.80;;;;;;;;;;105557;1296;22511;-24
2022/08/04 03:31:55;;;;;;;110.50;91.30;;;;;;;;;;105533;1303;22516;-28
2022/08/04 03:34:23;;;;;;;64.10;50.00;;;;;;;;;;105585;1303;26476;-29
2022/08/04 03:36:52;;;;;;;20.70;18.60;;;;;;;;;;105611;1296;22517;-28
2022/08/04 03:39:21;;;;;;;33.90;29.20;;;;;;;;;;105566;1303;25235;-24
2022/08/04 03:41:52;;;;;;;37.10;25.20;;;;;;;;;;105510;1296;25225;-25
2022/08/04 03:44:20;;;;;;;17.80;15.10;;;;;;;;;;105515;1304;22527;-24
2022/08/04 03:46:52;;;;;;;15.80;14.30;;;;;;;;;;105402;1303;25209;-23
2022/08/04 03:49:18;;;;;;;32.60;27.70;;;;;;;;;;105598;1303;22527;-26
2022/08/04 03:54:26;;;;;;;36.70;32.10;;;;;;;;;;105535;1303;22537;-24
2022/08/04 03:56:55;;;;;;;28.10;18.30;;;;;;;;;;105604;1303;22564;-24
2022/08/04 03:59:21;;;;;;;17.90;13.70;;;;;;;;;;105581;1303;25225;-28
2022/08/04 04:01:50;;;;;;;14.90;13.40;;;;;;;;;;105515;1303;25525;-28
2022/08/04 04:04:28;;;;;;;15.00;13.10;;;;;;;;;;105607;1303;25225;-30
2022/08/04 04:07:05;;;;;;;13.80;12.30;;;;;;;;;;105631;1303;24393;-25
2022/08/04 04:09:42;;;;;;;13.90;12.10;;;;;;;;;;105586;1303;24290;-23
2022/08/04 04:12:14;;;;;;;17.60;12.30;;;;;;;;;;105592;1304;22527;-29
2022/08/04 04:14:40;;;;;;;13.70;11.70;;;;;;;;;;105590;1303;23929;-29
2022/08/04 04:17:07;;;;;;;14.50;12.90;;;;;;;;;;105650;1303;22531;-24
2022/08/04 04:19:36;;;;;;;15.70;12.60;;;;;;;;;;105541;1303;25101;-27
2022/08/04 04:22:06;;;;;;;13.30;12.00;;;;;;;;;;105534;1303;26480;-27
2022/08/04 04:24:39;;;;;;;13.40;11.10;;;;;;;;;;105570;1292;22513;-30
2022/08/04 04:27:08;;;;;;;16.10;13.40;;;;;;;;;;105655;1303;25250;-30
2022/08/04 04:29:40;;;;;;;14.60;13.20;;;;;;;;;;105669;1303;25229;-30
2022/08/04 04:32:09;;;;;;;14.20;12.80;;;;;;;;;;105603;1296;22525;-28
2022/08/04 04:34:39;;;;;;;18.50;15.30;;;;;;;;;;105605;1303;26116;-28
2022/08/04 04:37:24;;;;;;;18.30;14.70;;;;;;;;;;105588;1303;25244;-31
2022/08/04 04:39:53;;;;;;;23.60;15.10;;;;;;;;;;105620;1303;24236;-28
2022/08/04 04:42:19;;;;;;;17.50;15.80;;;;;;;;;;105610;1304;24380;-28
2022/08/04 04:44:48;;;;;;;14.40;13.00;;;;;;;;;;105572;1303;22509;-29
2022/08/04 04:47:17;;;;;;;16.20;14.10;;;;;;;;;;105672;1303;25533;-28
2022/08/04 04:49:44;;;;;;;15.70;14.30;;;;;;;;;;105599;1303;25618;-28
2022/08/04 04:52:17;;;;;;;15.60;14.00;;;;;;;;;;105529;1296;22805;-31
2022/08/04 04:54:43;;;;;;;14.10;12.30;;;;;;;;;;105584;1303;22523;-28
2022/08/04 04:57:10;;;;;;;14.40;12.90;;;;;;;;;;105580;1303;24264;-28
2022/08/04 04:59:37;;;;;;;15.70;13.70;;;;;;;;;;105581;1303;24279;-25
2022/08/04 05:02:05;;;;;;;15.30;13.70;;;;;;;;;;105552;1303;25235;-26
2022/08/04 05:04:33;;;;;;;13.40;11.00;;;;;;;;;;105525;1296;22533;-25
2022/08/04 05:07:00;;;;;;;14.40;12.20;;;;;;;;;;105599;1303;22608;-25
2022/08/04 05:09:29;;;;;;;13.10;11.30;;;;;;;;;;105533;1303;24430;-28
2022/08/04 05:12:03;;;;;;;12.70;10.30;;;;;;;;;;105491;1303;24369;-28
2022/08/04 05:14:30;;;;;;;13.60;12.40;;;;;;;;;;105375;1298;25273;-28
2022/08/04 05:16:59;;;;;;;10.90;9.90;;;;;;;;;;105517;1303;25288;-31
2022/08/04 05:19:28;;;;;;;10.40;9.40;;;;;;;;;;105609;1303;24226;-27
2022/08/04 05:21:58;;;;;;;23.20;10.30;;;;;;;;;;105623;1299;22827;-31
2022/08/04 05:24:23;;;;;;;10.70;9.70;;;;;;;;;;105616;1303;25206;-27
2022/08/04 05:26:51;;;;;;;9.70;8.80;;;;;;;;;;105531;1303;25505;-25
2022/08/04 05:29:20;;;;;;;12.30;11.10;;;;;;;;;;105502;1296;25244;-29
2022/08/04 05:31:48;;;;;;;13.00;8.20;;;;;;;;;;105589;1303;24455;-25
2022/08/04 05:34:14;;;;;;;15.50;8.50;;;;;;;;;;105606;1296;24223;-25
2022/08/04 05:36:45;;;;;;;12.00;8.80;;;;;;;;;;105557;1303;25219;-25
2022/08/04 05:39:13;;;;;;;10.80;9.30;;;;;;;;;;105499;1303;23049;-26
2022/08/04 05:41:39;;;;;;;7.90;7.00;;;;;;;;;;105537;1296;22703;-25
2022/08/04 05:44:04;;;;;;;10.10;7.90;;;;;;;;;;105596;1303;24184;-28
2022/08/04 05:46:29;;;;;;;9.30;8.40;;;;;;;;;;105505;1303;24217;-29
2022/08/04 05:48:55;;;;;;;9.00;7.10;;;;;;;;;;105543;1299;22568;-29
2022/08/04 05:51:20;;;;;;;10.10;7.00;;;;;;;;;;104558;1303;1002987;-28
2022/08/04 05:53:46;;;;;;;9.20;7.10;;;;;;;;;;105533;1289;24415;-25
2022/08/04 05:56:12;;;;;;;8.70;6.40;;;;;;;;;;105524;1303;25350;-25
2022/08/04 05:58:37;;;;;;;8.10;7.40;;;;;;;;;;105547;1303;22518;-25
2022/08/04 06:01:02;;;;;;;6.70;6.10;;;;;;;;;;105526;1303;25250;-29
2022/08/04 06:03:28;;;;;;;6.30;5.50;;;;;;;;;;105372;1304;25243;-29
2022/08/04 06:05:53;;;;;;;13.40;6.20;;;;;;;;;;105538;1303;22610;-24
2022/08/04 06:08:19;;;;;;;6.80;6.20;;;;;;;;;;105574;1303;24175;-29
2022/08/04 06:10:44;;;;;;;5.90;5.50;;;;;;;;;;105437;1303;22496;-23
2022/08/04 06:13:10;;;;;;;6.40;5.50;;;;;;;;;;105565;1296;23147;-25
2022/08/04 06:15:36;;;;;;;7.00;5.90;;;;;;;;;;105592;1303;25175;-29
2022/08/04 06:18:02;;;;;;;5.80;5.10;;;;;;;;;;105503;1303;22858;-25
2022/08/04 06:20:29;;;;;;;6.00;5.60;;;;;;;;;;105570;1303;24397;-29
2022/08/04 06:22:55;;;;;;;5.30;4.90;;;;;;;;;;105566;1296;23866;-29
2022/08/04 06:25:21;;;;;;;6.00;4.90;;;;;;;;;;105540;1299;23883;-25
2022/08/04 06:27:47;;;;;;;6.30;5.70;;;;;;;;;;105552;1296;22628;-28
2022/08/04 06:30:13;;;;;;;5.50;5.00;;;;;;;;;;105566;1295;23879;-28
2022/08/04 06:32:46;;;;;;;5.10;4.70;;;;;;;;;;105579;1302;24216;-26
2022/08/04 06:35:13;;;;;;;6.90;4.20;;;;;;;;;;105574;1298;25288;-29
2022/08/04 06:37:38;;;;;;;4.20;3.90;;;;;;;;;;105557;1296;24396;-25
2022/08/04 06:40:08;;;;;;;6.00;4.20;;;;;;;;;;105598;1303;22521;-27
2022/08/04 06:42:37;;;;;;;5.30;4.40;;;;;;;;;;105585;1303;25209;-31
2022/08/04 06:45:06;;;;;;;4.30;3.90;;;;;;;;;;105655;1296;24266;-29
2022/08/04 06:47:31;;;;;;;5.40;3.00;;;;;;;;;;105626;1296;25187;-29
2022/08/04 06:49:57;;;;;;;3.50;3.20;;;;;;;;;;105574;1303;25155;-25
2022/08/04 06:52:22;;;;;;;4.40;4.00;;;;;;;;;;105575;1299;25260;-26
2022/08/04 06:54:49;;;;;;;4.10;3.70;;;;;;;;;;105514;1296;25237;-29
2022/08/04 06:57:17;;;;;;;3.60;3.20;;;;;;;;;;105526;1303;23263;-25
2022/08/04 06:59:43;;;;;;;5.40;3.50;;;;;;;;;;105577;1296;25263;-29
2022/08/04 07:02:10;;;;;;;3.60;3.30;;;;;;;;;;105553;1298;25261;-25
2022/08/04 07:04:36;;;;;;;3.70;3.30;;;;;;;;;;105583;1296;25226;-28
2022/08/04 07:07:01;;;;;;;4.90;3.30;;;;;;;;;;105627;1296;25226;-26
2022/08/04 07:09:26;;;;;;;6.20;3.80;;;;;;;;;;105541;1296;25231;-30
2022/08/04 07:11:52;;;;;;;3.80;3.50;;;;;;;;;;105568;1296;25351;-30
2022/08/04 07:14:17;;;;;;;4.30;3.20;;;;;;;;;;105597;1296;25371;-35
2022/08/04 07:16:43;;;;;;;6.80;2.80;;;;;;;;;;105607;1296;25288;-28
2022/08/04 07:19:08;;;;;;;13.90;4.30;;;;;;;;;;105516;1296;25194;-25
2022/08/04 07:21:34;;;;;;;3.20;2.90;;;;;;;;;;105629;1296;25190;-28
2022/08/04 07:23:59;;;;;;;3.10;2.60;;;;;;;;;;105514;1296;25196;-25
2022/08/04 07:26:26;;;;;;;3.10;2.80;;;;;;;;;;105508;1292;27097;-28
2022/08/04 07:28:51;;;;;;;3.10;2.60;;;;;;;;;;105541;1296;25235;-29
2022/08/04 07:31:17;;;;;;;2.60;2.30;;;;;;;;;;105542;1296;25223;-28
2022/08/04 07:33:42;;;;;;;2.90;2.20;;;;;;;;;;105552;1298;25206;-24
2022/08/04 07:36:08;;;;;;;7.80;2.40;;;;;;;;;;105570;1299;25212;-28
2022/08/04 07:38:33;;;;;;;3.10;2.00;;;;;;;;;;105512;1299;26487;-28
2022/08/04 07:41:00;;;;;;;3.40;3.10;;;;;;;;;;105654;1303;25238;-25
2022/08/04 07:43:26;;;;;;;3.40;3.10;;;;;;;;;;105577;1299;25420;-28
2022/08/04 07:45:51;;;;;;;2.80;2.60;;;;;;;;;;105412;1287;26474;-28
2022/08/04 07:48:17;;;;;;;2.60;2.40;;;;;;;;;;105605;1303;25294;-29
2022/08/04 07:50:43;;;;;;;9.00;2.90;;;;;;;;;;105601;1296;25229;-25
2022/08/04 07:53:09;;;;;;;2.70;2.40;;;;;;;;;;105558;1296;25194;-25
2022/08/04 07:55:35;;;;;;;4.10;3.00;;;;;;;;;;105619;1297;25251;-25
2022/08/04 07:58:00;;;;;;;3.50;3.00;;;;;;;;;;105620;1296;25234;-25
2022/08/04 08:00:26;;;;;;;3.80;3.30;;;;;;;;;;105540;1296;25287;-28
2022/08/04 08:02:52;;;;;;;2.50;2.30;;;;;;;;;;105570;1296;25309;-24
2022/08/04 08:05:18;;;;;;;2.90;2.70;;;;;;;;;;105585;1298;25225;-26
2022/08/04 08:07:45;;;;;;;2.50;2.30;;;;;;;;;;105581;1303;25403;-29
2022/08/04 08:10:11;;;;;;;3.30;2.50;;;;;;;;;;105596;1296;25194;-28
2022/08/04 08:12:37;;;;;;;2.70;2.40;;;;;;;;;;105640;1303;25217;-28
2022/08/04 08:15:04;;;;;;;3.00;2.60;;;;;;;;;;105567;1296;25274;-26
2022/08/04 08:17:30;;;;;;;2.60;2.40;;;;;;;;;;105595;1299;25196;-30
2022/08/04 08:19:55;;;;;;;2.60;2.30;;;;;;;;;;105654;1296;24323;-30
2022/08/04 08:22:21;;;;;;;2.30;2.20;;;;;;;;;;105591;1296;25343;-30
2022/08/04 08:24:46;;;;;;;6.70;2.40;;;;;;;;;;105558;1296;25337;-26
2022/08/04 08:27:12;;;;;;;3.00;2.40;;;;;;;;;;105559;1296;25245;-25
2022/08/04 08:29:37;;;;;;;7.10;2.60;;;;;;;;;;105587;1296;25206;-29
2022/08/04 08:32:03;;;;;;;2.90;2.70;;;;;;;;;;105522;1296;25194;-29
2022/08/04 08:34:28;;;;;;;4.70;1.80;;;;;;;;;;105578;1295;25346;-30
2022/08/04 08:36:57;;;;;;;3.30;3.00;;;;;;;;;;105564;1296;25219;-24
2022/08/04 08:39:25;;;;;;;2.70;2.00;;;;;;;;;;105579;1296;25351;-24
2022/08/04 08:41:54;;;;;;;2.30;2.10;;;;;;;;;;105580;1299;25346;-28
2022/08/04 08:44:23;;;;;;;3.50;2.70;;;;;;;;;;105565;1296;25206;-28
2022/08/04 08:46:57;;;;;;;3.70;2.70;;;;;;;;;;104880;1296;1003400;-29
2022/08/04 08:49:26;;;;;;;2.60;2.30;;;;;;;;;;105560;1296;25394;-28
2022/08/04 08:51:55;;;;;;;2.70;2.60;;;;;;;;;;105635;1296;25225;-28
2022/08/04 08:54:22;;;;;;;3.20;2.10;;;;;;;;;;105609;1298;25268;-25
2022/08/04 08:56:52;;;;;;;2.20;2.10;;;;;;;;;;105595;1296;25301;-26
2022/08/04 08:59:22;;;;;;;2.80;2.60;;;;;;;;;;105601;1299;25350;-25
2022/08/04 09:01:51;;;;;;;13.90;2.70;;;;;;;;;;105569;1296;25183;-25
2022/08/04 09:04:19;;;;;;;5.40;2.60;;;;;;;;;;105588;1297;25299;-29
2022/08/04 09:06:50;;;;;;;4.20;1.60;;;;;;;;;;105621;1280;25277;-25
2022/08/04 09:09:19;;;;;;;2.60;2.40;;;;;;;;;;105394;1298;25193;-29
2022/08/04 09:11:48;;;;;;;5.80;2.50;;;;;;;;;;105628;1296;25193;-29
2022/08/04 09:14:16;;;;;;;4.60;2.60;;;;;;;;;;105637;1303;25234;-29
2022/08/04 09:16:46;;;;;;;1.90;1.80;;;;;;;;;;105587;1297;25238;-25
2022/08/04 09:19:15;;;;;;;2.60;2.40;;;;;;;;;;105544;1303;25240;-24
2022/08/04 09:22:01;;;;;;;3.80;2.50;;;;;;;;;;105560;1296;25244;-25
2022/08/04 09:24:27;;;;;;;5.60;4.20;;;;;;;;;;105595;1292;25238;-30
2022/08/04 09:26:55;;;;;;;2.80;2.50;;;;;;;;;;105605;1296;25359;-25
2022/08/04 09:29:21;;;;;;;8.40;2.30;;;;;;;;;;105693;1299;25206;-29
2022/08/04 09:31:52;;;;;;;2.50;2.10;;;;;;;;;;105631;1296;25327;-24
2022/08/04 09:34:22;;;;;;;2.70;2.60;;;;;;;;;;105432;1299;25219;-29
2022/08/04 09:36:50;;;;;;;9.90;2.10;;;;;;;;;;105561;1298;25276;-24
2022/08/04 09:39:21;;;;;;;4.70;3.00;;;;;;;;;;105561;1303;25187;-25
2022/08/04 09:41:47;;;;;;;5.00;2.60;;;;;;;;;;105586;1296;25280;-25
2022/08/04 09:44:16;;;;;;;16.40;2.40;;;;;;;;;;105579;1303;25248;-28
2022/08/04 09:46:44;;;;;;;4.10;2.80;;;;;;;;;;105574;1289;25202;-28
2022/08/04 09:49:13;;;;;;;4.50;2.50;;;;;;;;;;105578;1298;25200;-26
2022/08/04 09:51:43;;;;;;;6.00;2.80;;;;;;;;;;105582;1299;25229;-25
2022/08/04 09:54:28;;;;;;;10.10;3.40;;;;;;;;;;105645;1298;25225;-24
2022/08/04 09:56:57;;;;;;;3.80;2.60;;;;;;;;;;105640;1282;25235;-28
2022/08/04 09:59:24;;;;;;;3.90;3.40;;;;;;;;;;105614;1303;25288;-30
2022/08/04 10:01:52;;;;;;;3.50;2.70;;;;;;;;;;105626;1296;25438;-25
2022/08/04 10:04:18;;;;;;;3.40;2.70;;;;;;;;;;105588;1299;22874;-25
2022/08/04 10:06:48;;;;;;;3.10;2.50;;;;;;;;;;105339;1298;26520;-28
2022/08/04 10:09:13;;;;;;;3.30;2.50;;;;;;;;;;105655;1296;25395;-29
2022/08/04 10:11:46;;;;;;;3.10;2.20;;;;;;;;;;105521;1298;22860;-25
2022/08/04 10:14:17;;;;;;;2.90;2.60;;;;;;;;;;105568;1299;25238;-29
2022/08/04 10:16:46;;;;;;;3.00;2.20;;;;;;;;;;105565;1298;25206;-29
2022/08/04 10:19:18;;;;;;;6.30;1.80;;;;;;;;;;105539;1292;25203;-29
2022/08/04 10:21:47;;;;;;;2.40;2.00;;;;;;;;;;105565;1298;25250;-29
2022/08/04 10:24:19;;;;;;;7.40;2.30;;;;;;;;;;105622;1283;25197;-25
2022/08/04 10:26:48;;;;;;;2.20;1.90;;;;;;;;;;105444;1298;22706;-29
2022/08/04 10:29:15;;;;;;;2.30;2.10;;;;;;;;;;105584;1303;25238;-25
2022/08/04 10:31:44;;;;;;;2.90;2.30;;;;;;;;;;105560;1298;25355;-25
2022/08/04 10:34:12;;;;;;;1.90;1.70;;;;;;;;;;105638;1296;25353;-29
2022/08/04 10:36:41;;;;;;;2.70;1.80;;;;;;;;;;105531;1303;25199;-25
2022/08/04 10:39:09;;;;;;;2.30;1.60;;;;;;;;;;105546;1296;25235;-25
2022/08/04 10:41:40;;;;;;;2.70;2.30;;;;;;;;;;105565;1296;25247;-25
2022/08/04 10:44:13;;;;;;;2.30;2.00;;;;;;;;;;105375;1303;25210;-30
2022/08/04 10:46:43;;;;;;;3.10;2.70;;;;;;;;;;105603;1299;25284;-28
2022/08/04 10:49:09;;;;;;;1.80;1.60;;;;;;;;;;105587;1299;25385;-28
2022/08/04 10:51:35;;;;;;;2.30;2.00;;;;;;;;;;105579;1298;25239;-24
2022/08/04 10:54:02;;;;;;;1.90;1.80;;;;;;;;;;105617;1296;25908;-24
2022/08/04 10:56:31;;;;;;;3.90;2.40;;;;;;;;;;105657;1299;25207;-24
2022/08/04 10:58:59;;;;;;;2.30;2.00;;;;;;;;;;105640;1303;25291;-28
2022/08/04 11:01:26;;;;;;;2.40;2.10;;;;;;;;;;105539;1296;25282;-28
2022/08/04 11:03:55;;;;;;;2.80;2.20;;;;;;;;;;105543;1296;25257;-25
2022/08/04 11:06:21;;;;;;;2.50;1.70;;;;;;;;;;105610;1296;25187;-24
2022/08/04 11:08:47;;;;;;;4.60;3.40;;;;;;;;;;105548;1296;25513;-25
2022/08/04 11:11:16;;;;;;;2.30;2.10;;;;;;;;;;105577;1296;25244;-24
2022/08/04 11:13:45;;;;;;;3.50;3.30;;;;;;;;;;105644;1296;25263;-24
2022/08/04 11:16:13;;;;;;;3.80;2.50;;;;;;;;;;105555;1289;25238;-25
2022/08/04 11:18:46;;;;;;;3.10;2.80;;;;;;;;;;105590;1298;25291;-29
2022/08/04 11:21:16;;;;;;;4.90;2.20;;;;;;;;;;105660;1296;25206;-24
2022/08/04 11:23:43;;;;;;;4.30;2.30;;;;;;;;;;105588;1297;25194;-24
2022/08/04 11:26:12;;;;;;;1.90;1.70;;;;;;;;;;105562;1296;25210;-25
2022/08/04 11:28:42;;;;;;;2.80;2.30;;;;;;;;;;105668;1296;25346;-25
2022/08/04 11:31:10;;;;;;;2.30;2.10;;;;;;;;;;105572;1296;25285;-25
2022/08/04 11:33:40;;;;;;;4.90;2.40;;;;;;;;;;105546;1299;25355;-24
2022/08/04 11:36:09;;;;;;;2.80;2.20;;;;;;;;;;105598;1296;25301;-24
2022/08/04 11:38:36;;;;;;;2.40;2.20;;;;;;;;;;105659;1299;25209;-28
2022/08/04 11:41:04;;;;;;;2.50;2.00;;;;;;;;;;105540;1298;25177;-25
2022/08/04 11:43:33;;;;;;;3.30;2.00;;;;;;;;;;105427;1304;23857;-24
2022/08/04 11:46:00;;;;;;;4.90;2.10;;;;;;;;;;105634;1303;25180;-28
2022/08/04 11:48:28;;;;;;;8.30;2.20;;;;;;;;;;105658;1299;25237;-28
2022/08/04 11:50:55;;;;;;;2.10;1.70;;;;;;;;;;105644;1289;25303;-24
2022/08/04 11:53:22;;;;;;;3.90;2.20;;;;;;;;;;105570;1288;26466;-28
2022/08/04 11:55:49;;;;;;;2.20;1.80;;;;;;;;;;105620;1296;25241;-29
2022/08/04 11:58:15;;;;;;;2.60;1.60;;;;;;;;;;105745;1296;24257;-25
2022/08/04 12:00:48;;;;;;;3.10;2.50;;;;;;;;;;105556;1298;25204;-29
2022/08/04 12:03:19;;;;;;;1.50;1.00;;;;;;;;;;105519;1303;25338;-24
2022/08/04 12:05:47;;;;;;;1.90;1.80;;;;;;;;;;105544;1296;25229;-25
2022/08/04 12:08:13;;;;;;;2.00;1.70;;;;;;;;;;105565;1296;25194;-29
2022/08/04 12:10:42;;;;;;;3.20;1.70;;;;;;;;;;105603;1295;25237;-29
2022/08/04 12:13:09;;;;;;;2.70;2.40;;;;;;;;;;105574;1296;25223;-25
2022/08/04 12:15:36;;;;;;;1.50;1.40;;;;;;;;;;105580;1296;25178;-29
2022/08/04 12:18:05;;;;;;;2.10;1.30;;;;;;;;;;105575;1296;25343;-29
2022/08/04 12:20:33;;;;;;;2.80;2.00;;;;;;;;;;105580;1296;25379;-25
2022/08/04 12:23:01;;;;;;;2.40;1.80;;;;;;;;;;105609;1296;25219;-29
2022/08/04 12:25:29;;;;;;;3.00;1.80;;;;;;;;;;105540;1296;25250;-29
2022/08/04 12:27:57;;;;;;;1.90;1.80;;;;;;;;;;105561;1298;25261;-25
2022/08/04 12:30:23;;;;;;;4.70;2.10;;;;;;;;;;105573;1299;25318;-29
2022/08/04 12:32:53;;;;;;;4.20;2.30;;;;;;;;;;105536;1297;25399;-25
2022/08/04 12:35:20;;;;;;;2.20;1.20;;;;;;;;;;105631;1297;25209;-25
2022/08/04 12:37:55;;;;;;;2.60;1.80;;;;;;;;;;105433;1298;26477;-25
2022/08/04 12:40:23;;;;;;;7.10;1.40;;;;;;;;;;105590;1299;25237;-25
2022/08/04 12:42:48;;;;;;;2.60;1.90;;;;;;;;;;105579;1298;25238;-29
2022/08/04 12:45:14;;;;;;;2.80;1.80;;;;;;;;;;105643;1296;25222;-29
2022/08/04 12:47:39;;;;;;;1.60;1.50;;;;;;;;;;105532;1296;25249;-29
2022/08/04 12:50:05;;;;;;;3.50;1.70;;;;;;;;;;105639;1299;23836;-25
2022/08/04 12:52:35;;;;;;;2.50;2.30;;;;;;;;;;105616;1303;25280;-29
2022/08/04 12:55:01;;;;;;;1.60;1.20;;;;;;;;;;105539;1299;25247;-29
2022/08/04 12:57:27;;;;;;;3.50;3.20;;;;;;;;;;105548;1303;25229;-25
2022/08/04 12:59:52;;;;;;;3.50;1.80;;;;;;;;;;105571;1303;22525;-29
2022/08/04 13:02:21;;;;;;;3.50;1.90;;;;;;;;;;105660;1295;25234;-25
2022/08/04 13:04:47;;;;;;;2.20;1.50;;;;;;;;;;105582;1296;25276;-28
2022/08/04 13:07:14;;;;;;;1.90;1.40;;;;;;;;;;105502;1296;25223;-24
2022/08/04 13:09:39;;;;;;;2.00;1.60;;;;;;;;;;105670;1299;25339;-28
2022/08/04 13:12:10;;;;;;;2.20;2.00;;;;;;;;;;105613;1295;25343;-28
2022/08/04 13:14:37;;;;;;;6.40;1.20;;;;;;;;;;105632;1296;25197;-31
2022/08/04 13:17:03;;;;;;;2.60;2.30;;;;;;;;;;105595;1296;25337;-25
2022/08/04 13:19:28;;;;;;;5.10;4.60;;;;;;;;;;105624;1299;25238;-24
2022/08/04 13:21:55;;;;;;;3.80;1.80;;;;;;;;;;105656;1299;25229;-28
2022/08/04 13:24:21;;;;;;;12.20;2.30;;;;;;;;;;105516;1296;25432;-24
2022/08/04 13:26:49;;;;;;;2.60;2.20;;;;;;;;;;105589;1296;25208;-25
2022/08/04 13:29:14;;;;;;;7.00;1.50;;;;;;;;;;105692;1299;25341;-25
2022/08/04 13:31:42;;;;;;;3.10;2.50;;;;;;;;;;105587;1282;26569;-29
2022/08/04 13:34:07;;;;;;;4.20;1.30;;;;;;;;;;105616;1296;25343;-25
2022/08/04 13:36:33;;;;;;;1.90;1.70;;;;;;;;;;105547;1295;25219;-29
2022/08/04 13:39:02;;;;;;;4.10;2.50;;;;;;;;;;105572;1298;25238;-24
2022/08/04 13:41:27;;;;;;;4.50;1.70;;;;;;;;;;105661;1298;25290;-28
2022/08/04 13:43:54;;;;;;;1.50;1.40;;;;;;;;;;105445;1299;26489;-28
2022/08/04 13:46:20;;;;;;;2.70;1.70;;;;;;;;;;105576;1281;25197;-25
2022/08/04 13:48:46;;;;;;;2.90;1.70;;;;;;;;;;105625;1299;25238;-25
2022/08/04 13:51:14;;;;;;;2.10;2.00;;;;;;;;;;105124;1296;622814;-25
2022/08/04 13:53:40;;;;;;;2.00;1.70;;;;;;;;;;105572;1296;25322;-29
2022/08/04 13:56:06;;;;;;;1.60;1.40;;;;;;;;;;105632;1303;25343;-29
2022/08/04 13:58:33;;;;;;;1.90;1.60;;;;;;;;;;105507;1303;25283;-28
2022/08/04 14:01:02;;;;;;;1.50;1.50;;;;;;;;;;105525;1298;25194;-28
2022/08/04 14:03:31;;;;;;;1.60;1.50;;;;;;;;;;105622;1299;25383;-24
2022/08/04 14:06:00;;;;;;;2.00;1.30;;;;;;;;;;105617;1299;25230;-28
2022/08/04 14:08:26;;;;;;;2.00;1.20;;;;;;;;;;105556;1296;25134;-28
2022/08/04 14:10:52;;;;;;;2.10;1.50;;;;;;;;;;105482;1299;25197;-28
2022/08/04 14:13:26;;;;;;;3.70;3.40;;;;;;;;;;105584;1296;26474;-27
2022/08/04 14:15:51;;;;;;;13.20;11.90;;;;;;;;;;105631;1299;26468;-28
2022/08/04 14:18:19;;;;;;;1.70;1.50;;;;;;;;;;105596;1303;25197;-28
2022/08/04 14:20:48;;;;;;;2.60;1.90;;;;;;;;;;105602;1297;25238;-24
2022/08/04 14:23:14;;;;;;;2.70;1.80;;;;;;;;;;105560;1289;25241;-28
2022/08/04 14:25:39;;;;;;;4.40;1.30;;;;;;;;;;105511;1299;25209;-24
2022/08/04 14:28:05;;;;;;;4.50;1.10;;;;;;;;;;105602;1299;25200;-29
2022/08/04 14:30:31;;;;;;;1.50;1.10;;;;;;;;;;105558;1298;25350;-25